createdAt,value
2019-03-20T00:02:19.302Z,13.80
2019-03-20T00:04:49.922Z,15.17
2019-03-20T00:07:19.647Z,13.20
2019-03-20T00:09:48.909Z,12.47
2019-03-20T00:12:18.280Z,15.07
2019-03-20T00:14:47.311Z,18.17
2019-03-20T00:17:16.321Z,17.90
2019-03-20T00:19:45.443Z,17.00
2019-03-20T00:22:15.163Z,16.67
2019-03-20T00:24:44.205Z,21.43
2019-03-20T00:27:13.621Z,16.43
2019-03-20T00:29:42.692Z,16.13
2019-03-20T00:32:12.078Z,15.03
2019-03-20T00:34:41.151Z,16.53
2019-03-20T00:37:10.149Z,16.83
2019-03-20T00:39:39.195Z,18.17
2019-03-20T00:42:08.204Z,18.37
2019-03-20T00:44:37.248Z,18.43
2019-03-20T00:47:06.285Z,18.23
2019-03-20T00:49:35.315Z,22.03
2019-03-20T00:52:04.678Z,23.33
2019-03-20T00:54:33.699Z,21.40
2019-03-20T00:57:03.099Z,23.23
2019-03-20T00:59:32.161Z,25.20
2019-03-20T01:02:01.165Z,24.20
2019-03-20T01:04:30.257Z,23.13
2019-03-20T01:06:59.294Z,20.80
2019-03-20T01:09:28.363Z,21.77
2019-03-20T01:11:57.729Z,20.47
2019-03-20T01:14:27.129Z,19.57
2019-03-20T01:16:56.833Z,20.10
2019-03-20T01:19:25.843Z,22.57
2019-03-20T01:21:54.888Z,21.17
2019-03-20T01:24:23.921Z,19.63
2019-03-20T01:26:53.308Z,22.33
2019-03-20T01:29:22.668Z,17.87
2019-03-20T01:31:51.673Z,22.30
2019-03-20T01:34:21.028Z,21.43
2019-03-20T01:36:50.030Z,21.17
2019-03-20T01:39:19.047Z,21.23
2019-03-20T01:41:48.054Z,23.10
2019-03-20T01:44:17.117Z,19.80
2019-03-20T01:46:46.211Z,20.20
2019-03-20T01:49:15.788Z,19.17
2019-03-20T01:51:44.803Z,19.33
2019-03-20T01:54:13.830Z,21.37
2019-03-20T01:56:42.849Z,19.77
2019-03-20T01:59:12.162Z,20.70
2019-03-20T02:01:41.767Z,20.63
2019-03-20T02:04:11.273Z,20.90
2019-03-20T02:06:40.265Z,25.53
2019-03-20T02:09:09.282Z,23.20
2019-03-20T02:11:38.683Z,20.57
2019-03-20T02:14:07.687Z,23.37
2019-03-20T02:16:36.983Z,26.20
2019-03-20T02:19:06.343Z,23.50
2019-03-20T02:21:35.978Z,27.83
2019-03-20T02:24:05.821Z,23.27
2019-03-20T02:26:34.822Z,23.63
2019-03-20T02:29:03.840Z,23.73
2019-03-20T02:31:32.866Z,22.73
2019-03-20T02:34:02.246Z,22.47
2019-03-20T02:36:31.246Z,24.23
2019-03-20T02:39:00.307Z,22.17
2019-03-20T02:41:29.662Z,24.00
2019-03-20T02:43:59.045Z,24.97
2019-03-20T02:46:28.364Z,25.63
2019-03-20T02:48:58.070Z,27.47
2019-03-20T02:51:27.558Z,21.00
2019-03-20T02:53:56.957Z,23.87
2019-03-20T02:56:26.291Z,25.83
2019-03-20T02:58:55.298Z,22.03
2019-03-20T03:01:24.332Z,23.30
2019-03-20T03:03:53.375Z,24.20
2019-03-20T03:06:22.370Z,21.90
2019-03-20T03:08:51.437Z,25.70
2019-03-20T03:11:20.426Z,25.67
2019-03-20T03:13:49.442Z,20.93
2019-03-20T03:16:18.469Z,25.10
2019-03-20T03:18:47.683Z,25.27
2019-03-20T03:21:17.018Z,23.20
2019-03-20T03:23:46.311Z,24.87
2019-03-20T03:26:15.675Z,24.80
2019-03-20T03:28:44.749Z,21.73
2019-03-20T03:31:13.756Z,22.50
2019-03-20T03:33:42.794Z,21.27
2019-03-20T03:36:20.980Z,19.70
2019-03-20T03:38:43.187Z,23.63
2019-03-20T03:41:12.631Z,21.20
2019-03-20T03:43:41.654Z,23.13
2019-03-20T03:46:10.698Z,22.97
2019-03-20T03:48:39.687Z,20.40
2019-03-20T03:51:09.037Z,18.37
2019-03-20T03:53:38.065Z,20.90
2019-03-20T03:56:07.093Z,19.57
2019-03-20T03:58:36.122Z,20.80
2019-03-20T04:01:06.022Z,24.43
2019-03-20T04:03:35.040Z,17.17
2019-03-20T04:06:04.049Z,18.57
2019-03-20T04:08:33.435Z,21.17
2019-03-20T04:11:02.470Z,22.57
2019-03-20T04:13:31.453Z,19.27
2019-03-20T04:16:00.477Z,19.83
2019-03-20T04:18:29.479Z,23.63
2019-03-20T04:20:59.149Z,20.17
2019-03-20T04:23:28.549Z,18.67
2019-03-20T04:25:57.822Z,21.30
2019-03-20T04:28:26.872Z,18.73
2019-03-20T04:30:55.902Z,19.63
2019-03-20T04:33:25.211Z,20.20
2019-03-20T04:35:54.222Z,18.50
2019-03-20T04:38:23.246Z,19.23
2019-03-20T04:40:52.685Z,18.87
2019-03-20T04:43:22.338Z,18.23
2019-03-20T04:45:52.030Z,21.10
2019-03-20T04:48:21.101Z,16.60
2019-03-20T04:50:50.111Z,13.57
2019-03-20T04:53:19.716Z,17.93
2019-03-20T04:55:48.738Z,17.03
2019-03-20T04:58:18.270Z,15.87
2019-03-20T05:00:47.331Z,16.47
2019-03-20T05:03:16.348Z,15.83
2019-03-20T05:05:45.661Z,15.20
2019-03-20T05:08:14.692Z,19.60
2019-03-20T05:10:43.723Z,21.53
2019-03-20T05:13:13.109Z,21.57
2019-03-20T05:15:42.149Z,19.70
2019-03-20T05:18:11.201Z,18.60
2019-03-20T05:20:40.924Z,23.13
2019-03-20T05:23:09.941Z,17.13
2019-03-20T05:25:39.313Z,16.70
2019-03-20T05:28:08.640Z,21.90
2019-03-20T05:30:38.014Z,16.30
2019-03-20T05:33:07.060Z,17.93
2019-03-20T05:35:36.094Z,15.17
2019-03-20T05:38:05.113Z,15.57
2019-03-20T05:40:34.167Z,15.40
2019-03-20T05:43:03.189Z,17.07
2019-03-20T05:45:32.524Z,18.37
2019-03-20T05:48:01.559Z,15.03
2019-03-20T05:50:30.573Z,17.67
2019-03-20T05:52:59.577Z,17.37
2019-03-20T05:55:28.591Z,12.57
2019-03-20T05:57:57.594Z,17.03
2019-03-20T06:00:29.501Z,18.70
2019-03-20T06:02:58.861Z,13.93
2019-03-20T06:05:27.918Z,14.37
2019-03-20T06:07:57.027Z,14.97
2019-03-20T06:10:26.064Z,13.40
2019-03-20T06:12:55.489Z,12.43
2019-03-20T06:15:24.731Z,13.13
2019-03-20T06:17:53.837Z,13.97
2019-03-20T06:20:22.881Z,12.77
2019-03-20T06:22:52.039Z,14.43
2019-03-20T06:25:21.769Z,13.10
2019-03-20T06:27:52.910Z,14.83
2019-03-20T06:30:21.608Z,12.27
2019-03-20T06:32:50.638Z,15.00
2019-03-20T06:35:19.805Z,12.73
2019-03-20T06:37:48.868Z,12.43
2019-03-20T06:40:18.008Z,13.67
2019-03-20T06:42:47.150Z,13.80
2019-03-20T06:45:16.552Z,15.00
2019-03-20T06:47:45.591Z,14.97
2019-03-20T06:50:15.250Z,19.37
2019-03-20T06:52:44.602Z,15.50
2019-03-20T06:55:13.634Z,15.73
2019-03-20T06:57:42.958Z,17.60
2019-03-20T07:00:40.769Z,14.30
2019-03-20T07:03:14.146Z,14.93
2019-03-20T07:06:06.918Z,11.67
2019-03-20T07:08:39.984Z,12.17
2019-03-20T07:11:08.765Z,13.13
2019-03-20T07:13:38.169Z,13.17
2019-03-20T07:16:07.170Z,17.67
2019-03-20T07:18:36.538Z,13.90
2019-03-20T07:21:06.190Z,16.40
2019-03-20T07:23:35.225Z,14.43
2019-03-20T07:26:04.566Z,12.40
2019-03-20T07:28:33.969Z,12.73
2019-03-20T07:31:14.330Z,13.77
2019-03-20T07:33:34.145Z,12.80
2019-03-20T07:36:03.242Z,13.90
2019-03-20T07:38:32.264Z,14.20
2019-03-20T07:41:01.272Z,11.37
2019-03-20T07:43:30.291Z,7.97
2019-03-20T07:45:59.372Z,9.80
2019-03-20T07:48:28.776Z,9.73
2019-03-20T07:50:58.156Z,11.40
2019-03-20T07:53:27.110Z,9.30
2019-03-20T07:55:56.219Z,9.70
2019-03-20T07:58:25.571Z,10.40
2019-03-20T08:00:54.594Z,8.67
2019-03-20T08:03:23.651Z,10.30
2019-03-20T08:05:52.654Z,13.03
2019-03-20T08:08:22.409Z,11.40
2019-03-20T08:10:51.890Z,10.93
2019-03-20T08:13:20.927Z,9.43
2019-03-20T08:15:50.438Z,12.07
2019-03-20T08:18:19.453Z,10.43
2019-03-20T08:20:48.524Z,10.57
2019-03-20T08:23:17.852Z,15.67
2019-03-20T08:25:46.909Z,12.67
2019-03-20T08:28:15.929Z,12.50
2019-03-20T08:30:44.952Z,10.27
2019-03-20T08:33:14.335Z,10.50
2019-03-20T08:35:43.363Z,13.17
2019-03-20T08:38:18.289Z,12.00
2019-03-20T08:40:43.606Z,12.27
2019-03-20T08:43:12.982Z,11.73
2019-03-20T08:45:42.727Z,9.70
2019-03-20T08:48:12.433Z,9.93
2019-03-20T08:50:41.872Z,12.17
2019-03-20T08:53:11.006Z,10.73
2019-03-20T08:55:40.038Z,12.40
2019-03-20T08:58:09.135Z,11.53
2019-03-20T09:00:38.217Z,10.00
2019-03-20T09:03:07.262Z,12.00
2019-03-20T09:05:36.953Z,11.47
2019-03-20T09:08:06.625Z,13.47
2019-03-20T09:10:35.671Z,10.87
2019-03-20T09:13:04.718Z,10.60
2019-03-20T09:15:33.766Z,14.33
2019-03-20T09:18:02.951Z,10.93
2019-03-20T09:20:32.041Z,10.67
2019-03-20T09:23:01.081Z,14.23
2019-03-20T09:25:30.899Z,12.13
2019-03-20T09:28:00.279Z,14.30
2019-03-20T09:30:29.636Z,11.20
2019-03-20T09:32:59.554Z,16.27
2019-03-20T09:35:28.868Z,15.67
2019-03-20T09:37:58.146Z,12.67
2019-03-20T09:40:27.208Z,16.30
2019-03-20T09:42:56.226Z,13.93
2019-03-20T09:45:25.370Z,16.93
2019-03-20T09:47:54.390Z,15.83
2019-03-20T09:50:23.959Z,14.97
2019-03-20T09:52:52.999Z,15.77
2019-03-20T09:55:22.029Z,17.13
2019-03-20T09:57:51.042Z,13.77
2019-03-20T10:00:21.929Z,13.03
2019-03-20T10:02:51.100Z,18.07
2019-03-20T10:05:20.154Z,17.37
2019-03-20T10:07:49.289Z,11.57
2019-03-20T10:10:19.646Z,10.47
2019-03-20T10:12:48.946Z,12.63
2019-03-20T10:15:18.597Z,14.50
2019-03-20T10:17:47.865Z,14.43
2019-03-20T10:20:18.239Z,18.30
2019-03-20T10:22:47.504Z,14.97
2019-03-20T10:25:16.520Z,11.40
2019-03-20T10:27:45.579Z,12.20
2019-03-20T10:30:17.016Z,9.93
2019-03-20T10:32:46.052Z,13.07
2019-03-20T10:35:15.340Z,11.70
2019-03-20T10:37:44.644Z,12.70
2019-03-20T10:40:15.329Z,12.80
2019-03-20T10:42:44.442Z,11.47
2019-03-20T10:45:13.872Z,12.07
2019-03-20T10:47:42.926Z,9.85
2019-03-20T10:50:14.016Z,10.03
2019-03-20T10:52:43.320Z,10.65
2019-03-20T10:55:12.441Z,11.20
2019-03-20T10:57:41.748Z,9.88
2019-03-20T11:00:21.076Z,11.38
2019-03-20T11:02:50.098Z,9.53
2019-03-20T11:05:19.669Z,9.63
2019-03-20T11:07:48.686Z,11.25
2019-03-20T11:10:21.729Z,9.80
2019-03-20T11:12:50.772Z,9.53
2019-03-20T11:15:19.839Z,7.10
2019-03-20T11:17:49.143Z,10.82
2019-03-20T11:20:18.205Z,10.90
2019-03-20T11:22:47.532Z,9.40
2019-03-20T11:25:17.608Z,9.03
2019-03-20T11:27:46.630Z,10.50
2019-03-20T11:30:18.354Z,12.68
2019-03-20T11:32:47.434Z,11.40
2019-03-20T11:35:16.833Z,11.30
2019-03-20T11:37:45.992Z,10.45
2019-03-20T11:40:23.326Z,9.87
2019-03-20T11:42:52.366Z,10.47
2019-03-20T11:45:23.566Z,10.90
2019-03-20T11:47:53.465Z,11.77
2019-03-20T11:50:24.786Z,10.50
2019-03-20T11:52:53.823Z,11.17
2019-03-20T11:55:23.134Z,14.17
2019-03-20T11:57:52.172Z,11.17
2019-03-20T12:00:21.232Z,12.90
2019-03-20T12:02:50.534Z,9.90
2019-03-20T12:05:22.537Z,14.73
2019-03-20T12:07:51.925Z,12.37
2019-03-20T12:10:21.892Z,13.28
2019-03-20T12:12:51.009Z,12.65
2019-03-20T12:15:20.276Z,11.43
2019-03-20T12:17:49.323Z,13.25
2019-03-20T12:20:19.032Z,12.97
2019-03-20T12:22:48.220Z,12.53
2019-03-20T12:25:19.155Z,13.23
2019-03-20T12:27:48.500Z,16.20
2019-03-20T12:30:19.608Z,10.23
2019-03-20T12:32:48.648Z,11.70
2019-03-20T12:35:18.090Z,10.13
2019-03-20T12:37:47.290Z,13.30
2019-03-20T12:40:18.975Z,12.90
2019-03-20T12:42:48.262Z,11.07
2019-03-20T12:45:17.892Z,23.50
2019-03-20T12:47:47.007Z,12.40
2019-03-20T12:50:16.394Z,11.93
2019-03-20T12:52:45.674Z,12.43
2019-03-20T12:55:14.958Z,12.35
2019-03-20T12:57:43.993Z,14.68
2019-03-20T13:00:17.984Z,15.10
2019-03-20T13:02:47.075Z,12.60
2019-03-20T13:05:16.483Z,11.93
2019-03-20T13:07:45.646Z,12.00
2019-03-20T13:10:16.168Z,15.70
2019-03-20T13:12:45.326Z,13.50
2019-03-20T13:15:16.638Z,19.33
2019-03-20T13:17:45.664Z,13.47
2019-03-20T13:20:14.934Z,13.90
2019-03-20T13:22:44.494Z,14.43
2019-03-20T13:25:14.133Z,13.33
2019-03-20T13:27:43.163Z,14.80
2019-03-20T13:30:33.647Z,10.45
2019-03-20T13:33:02.686Z,13.80
2019-03-20T13:35:31.748Z,13.53
2019-03-20T13:38:00.783Z,12.80
2019-03-20T13:40:29.790Z,10.18
2019-03-20T13:42:58.845Z,9.00
2019-03-20T13:45:27.895Z,10.23
2019-03-20T13:47:57.483Z,13.10
2019-03-20T13:50:27.044Z,11.55
2019-03-20T13:52:56.344Z,10.48
2019-03-20T13:55:25.427Z,14.38
2019-03-20T13:57:54.428Z,10.60
2019-03-20T14:00:23.788Z,12.07
2019-03-20T14:02:53.130Z,9.60
2019-03-20T14:05:22.193Z,11.03
2019-03-20T14:07:51.643Z,14.20
2019-03-20T14:10:25.349Z,9.43
2019-03-20T14:12:52.224Z,12.05
2019-03-20T14:15:21.475Z,12.70
2019-03-20T14:17:50.512Z,11.47
2019-03-20T14:20:21.665Z,32.20
2019-03-20T14:22:51.856Z,39.50
2019-03-20T14:25:21.166Z,11.77
2019-03-20T14:27:50.183Z,17.43
2019-03-20T14:30:23.994Z,10.23
2019-03-20T14:32:53.209Z,10.80
2019-03-20T14:35:22.525Z,11.03
2019-03-20T14:37:51.847Z,12.95
2019-03-20T14:40:23.071Z,8.33
2019-03-20T14:42:52.143Z,12.07
2019-03-20T14:45:21.188Z,10.87
2019-03-20T14:47:50.265Z,14.00
2019-03-20T14:50:21.185Z,12.60
2019-03-20T14:52:50.204Z,8.53
2019-03-20T14:55:19.552Z,12.97
2019-03-20T14:57:48.602Z,13.50
2019-03-20T15:00:19.613Z,11.57
2019-03-20T15:02:48.838Z,12.77
2019-03-20T15:05:18.189Z,10.43
2019-03-20T15:07:47.751Z,10.17
2019-03-20T15:10:17.803Z,11.87
2019-03-20T15:12:47.421Z,13.63
2019-03-20T15:15:37.373Z,9.73
2019-03-20T15:18:06.817Z,10.03
2019-03-20T15:20:35.853Z,9.90
2019-03-20T15:23:04.883Z,10.60
2019-03-20T15:25:33.931Z,12.83
2019-03-20T15:28:03.218Z,8.93
2019-03-20T15:30:32.240Z,8.70
2019-03-20T15:33:01.250Z,11.53
2019-03-20T15:35:30.263Z,9.37
2019-03-20T15:37:59.610Z,10.10
2019-03-20T15:40:29.216Z,10.27
2019-03-20T15:42:58.415Z,11.87
2019-03-20T15:45:27.449Z,12.13
2019-03-20T15:47:56.489Z,9.50
2019-03-20T15:50:25.530Z,12.90
2019-03-20T15:52:54.820Z,24.27
2019-03-20T15:55:26.394Z,10.10
2019-03-20T15:57:55.427Z,11.73
2019-03-20T16:00:24.474Z,9.57
2019-03-20T16:02:55.387Z,12.60
2019-03-20T16:05:24.417Z,12.80
2019-03-20T16:07:53.422Z,10.27
2019-03-20T16:10:22.775Z,10.80
2019-03-20T16:12:51.795Z,17.73
2019-03-20T16:15:21.043Z,9.37
2019-03-20T16:17:50.075Z,9.03
2019-03-20T16:20:19.422Z,10.57
2019-03-20T16:22:48.793Z,13.87
2019-03-20T16:25:17.855Z,13.23
2019-03-20T16:27:46.891Z,10.83
2019-03-20T16:30:18.492Z,14.03
2019-03-20T16:32:47.556Z,10.93
2019-03-20T16:35:16.839Z,8.97
2019-03-20T16:37:46.274Z,8.30
2019-03-20T16:40:25.119Z,13.37
2019-03-20T16:42:54.184Z,11.60
2019-03-20T16:45:26.044Z,9.00
2019-03-20T16:47:55.471Z,14.40
2019-03-20T16:50:24.483Z,13.70
2019-03-20T16:52:53.529Z,14.93
2019-03-20T16:55:22.651Z,11.20
2019-03-20T16:57:51.810Z,13.33
2019-03-20T17:00:22.619Z,9.03
2019-03-20T17:02:52.026Z,12.50
2019-03-20T17:05:21.429Z,7.80
2019-03-20T17:07:50.485Z,10.60
2019-03-20T17:10:25.041Z,11.33
2019-03-20T17:12:54.376Z,11.53
2019-03-20T17:15:24.863Z,11.83
2019-03-20T17:17:54.197Z,36.10
2019-03-20T17:20:23.263Z,11.47
2019-03-20T17:22:52.293Z,12.83
2019-03-20T17:25:21.635Z,12.73
2019-03-20T17:27:50.703Z,12.43
2019-03-20T17:30:21.975Z,45.33
2019-03-20T17:32:51.023Z,11.37
2019-03-20T17:35:20.121Z,12.77
2019-03-20T17:37:49.221Z,12.70
2019-03-20T17:40:19.414Z,11.67
2019-03-20T17:42:48.445Z,32.50
2019-03-20T17:45:18.452Z,21.73
2019-03-20T17:47:47.469Z,10.80
2019-03-20T17:50:19.131Z,18.40
2019-03-20T17:52:48.229Z,24.83
2019-03-20T17:55:36.647Z,19.10
2019-03-20T17:58:05.869Z,14.03
2019-03-20T18:00:40.168Z,19.83
2019-03-20T18:03:09.800Z,17.90
2019-03-20T18:05:39.014Z,26.27
2019-03-20T18:08:08.074Z,12.77
2019-03-20T18:10:37.517Z,11.03
2019-03-20T18:13:07.200Z,16.43
2019-03-20T18:15:36.921Z,8.37
2019-03-20T18:18:07.070Z,16.10
2019-03-20T18:20:36.655Z,20.17
2019-03-20T18:23:06.890Z,14.80
2019-03-20T18:25:36.464Z,22.50
2019-03-20T18:28:06.203Z,14.77
2019-03-20T18:30:36.019Z,12.63
2019-03-20T18:33:05.612Z,15.87
2019-03-20T18:35:34.670Z,17.97
2019-03-20T18:38:03.729Z,20.80
2019-03-20T18:40:32.749Z,19.23
2019-03-20T18:43:01.785Z,13.57
2019-03-20T18:45:30.813Z,14.97
2019-03-20T18:47:59.836Z,16.70
2019-03-20T18:50:28.854Z,12.37
2019-03-20T18:52:57.868Z,14.97
2019-03-20T18:55:26.869Z,11.07
2019-03-20T18:57:55.877Z,14.17
2019-03-20T19:00:26.105Z,12.17
2019-03-20T19:02:56.151Z,12.87
2019-03-20T19:05:34.829Z,15.73
2019-03-20T19:08:04.300Z,15.47
2019-03-20T19:10:33.524Z,16.10
2019-03-20T19:13:02.941Z,14.30
2019-03-20T19:15:32.306Z,10.90
2019-03-20T19:18:01.323Z,13.30
2019-03-20T19:20:30.337Z,14.50
2019-03-20T19:22:59.379Z,10.93
2019-03-20T19:25:28.449Z,13.63
2019-03-20T19:27:57.470Z,11.50
2019-03-20T19:30:27.067Z,18.97
2019-03-20T19:32:56.151Z,15.23
2019-03-20T19:35:25.494Z,19.67
2019-03-20T19:37:54.995Z,16.03
2019-03-20T19:40:24.434Z,16.10
2019-03-20T19:42:53.499Z,11.43
2019-03-20T19:45:23.013Z,13.60
2019-03-20T19:47:52.049Z,14.70
2019-03-20T19:50:21.119Z,13.03
2019-03-20T19:52:50.153Z,12.70
2019-03-20T19:55:19.184Z,12.60
2019-03-20T19:57:48.210Z,12.77
2019-03-20T20:00:17.261Z,12.30
2019-03-20T20:02:46.560Z,16.23
2019-03-20T20:05:16.407Z,16.37
2019-03-20T20:07:45.511Z,15.40
2019-03-20T20:10:14.559Z,11.90
2019-03-20T20:12:43.606Z,10.73
2019-03-20T20:15:14.935Z,15.60
2019-03-20T20:17:43.952Z,11.93
2019-03-20T20:20:14.723Z,11.30
2019-03-20T20:22:43.782Z,11.97
2019-03-20T20:25:12.812Z,12.43
2019-03-20T20:27:42.063Z,14.83
2019-03-20T20:30:13.525Z,14.23
2019-03-20T20:32:42.756Z,16.10
2019-03-20T20:35:11.879Z,15.27
2019-03-20T20:37:40.928Z,12.47
2019-03-20T20:40:12.057Z,13.17
2019-03-20T20:42:43.219Z,15.67
2019-03-20T20:45:13.045Z,11.90
2019-03-20T20:47:42.346Z,13.57
2019-03-20T20:50:11.683Z,15.97
2019-03-20T20:52:41.038Z,14.67
2019-03-20T20:55:13.348Z,13.10
2019-03-20T20:57:42.376Z,14.13
2019-03-20T21:00:14.516Z,19.60
2019-03-20T21:02:43.858Z,16.17
2019-03-20T21:05:12.874Z,16.70
2019-03-20T21:07:41.958Z,17.73
2019-03-20T21:10:14.792Z,19.60
2019-03-20T21:12:55.113Z,15.53
2019-03-20T21:15:36.567Z,14.27
2019-03-20T21:18:37.776Z,14.67
2019-03-20T21:21:07.353Z,17.50
2019-03-20T21:24:12.677Z,17.33
2019-03-20T21:26:55.537Z,19.67
2019-03-20T21:30:06.321Z,18.93
2019-03-20T21:32:39.761Z,17.50
2019-03-20T21:36:16.920Z,18.50
2019-03-20T21:38:46.524Z,17.87
2019-03-20T21:41:57.903Z,15.57
2019-03-20T21:45:14.242Z,14.53
2019-03-20T21:47:43.814Z,14.47
2019-03-20T21:51:21.121Z,14.87
2019-03-20T21:54:29.750Z,13.50
2019-03-20T21:57:22.090Z,16.13
2019-03-20T22:00:17.735Z,15.40
2019-03-20T22:02:47.291Z,16.13
2019-03-20T22:05:38.741Z,16.50
2019-03-20T22:08:08.803Z,13.70
2019-03-20T22:11:23.846Z,16.43
2019-03-20T22:14:06.754Z,18.10
2019-03-20T22:17:12.622Z,17.47
2019-03-20T22:20:13.083Z,17.50
2019-03-20T22:23:09.060Z,17.70
2019-03-20T22:26:20.962Z,17.70
2019-03-20T22:29:23.358Z,13.87
2019-03-20T22:32:48.216Z,15.13
2019-03-20T22:35:50.012Z,15.87
2019-03-20T22:39:12.554Z,14.33
2019-03-20T22:41:51.817Z,16.10
2019-03-20T22:44:22.080Z,13.80
2019-03-20T22:47:27.125Z,14.53
2019-03-20T22:50:29.976Z,19.63
2019-03-20T22:53:49.308Z,17.27
2019-03-20T22:56:58.163Z,21.90
2019-03-20T22:59:28.209Z,18.20
2019-03-20T23:02:42.634Z,15.30
2019-03-20T23:05:12.344Z,18.70
2019-03-20T23:07:41.942Z,20.43
2019-03-20T23:10:13.321Z,19.40
2019-03-20T23:12:43.628Z,16.27
2019-03-20T23:15:15.386Z,14.50
2019-03-20T23:17:45.054Z,14.00
2019-03-20T23:20:17.657Z,14.07
2019-03-20T23:22:47.246Z,14.83
2019-03-20T23:25:16.818Z,14.37
2019-03-20T23:27:46.386Z,17.57
2019-03-20T23:30:18.848Z,19.20
2019-03-20T23:32:48.402Z,16.90
2019-03-20T23:35:18.298Z,15.53
2019-03-20T23:37:47.862Z,18.97
2019-03-20T23:40:17.436Z,19.87
2019-03-20T23:42:47.392Z,19.60
2019-03-20T23:45:17.752Z,18.40
2019-03-20T23:47:57.493Z,19.13
2019-03-20T23:50:27.672Z,17.40
2019-03-20T23:52:57.596Z,18.50
2019-03-20T23:55:27.292Z,18.53
2019-03-20T23:57:57.154Z,18.63
